sensor_id;sensor_type;location;lat;lon;timestamp;P1;durP1;ratioP1;P2;durP2;ratioP2
46931;SDS011;32670;51.464;11.964;2023-03-01T00:00:38;3.20;;;2.50;;
46931;SDS011;32670;51.464;11.964;2023-03-01T00:03:04;2.40;;;2.20;;
46931;SDS011;32670;51.464;11.964;2023-03-01T00:05:30;2.40;;;2.10;;
46931;SDS011;32670;51.464;11.964;2023-03-01T00:07:55;2.20;;;1.97;;
46931;SDS011;32670;51.464;11.964;2023-03-01T00:10:21;2.33;;;2.13;;
46931;SDS011;32670;51.464;11.964;2023-03-01T00:12:46;2.10;;;1.90;;
46931;SDS011;32670;51.464;11.964;2023-03-01T00:15:12;2.50;;;2.30;;
46931;SDS011;32670;51.464;11.964;2023-03-01T00:17:37;2.83;;;2.10;;
46931;SDS011;32670;51.464;11.964;2023-03-01T00:20:03;6.83;;;2.37;;
46931;SDS011;32670;51.464;11.964;2023-03-01T00:22:32;5.67;;;1.93;;
46931;SDS011;32670;51.464;11.964;2023-03-01T00:24:58;3.37;;;2.40;;
46931;SDS011;32670;51.464;11.964;2023-03-01T00:27:23;4.10;;;2.40;;
46931;SDS011;32670;51.464;11.964;2023-03-01T00:29:49;2.70;;;2.23;;
46931;SDS011;32670;51.464;11.964;2023-03-01T00:32:14;3.93;;;2.50;;
46931;SDS011;32670;51.464;11.964;2023-03-01T00:34:40;3.30;;;2.20;;
46931;SDS011;32670;51.464;11.964;2023-03-01T00:37:05;2.93;;;1.90;;
46931;SDS011;32670;51.464;11.964;2023-03-01T00:39:31;4.03;;;2.20;;
46931;SDS011;32670;51.464;11.964;2023-03-01T00:41:57;2.33;;;2.00;;
46931;SDS011;32670;51.464;11.964;2023-03-01T00:44:23;4.03;;;1.93;;
46931;SDS011;32670;51.464;11.964;2023-03-01T00:46:48;3.07;;;2.20;;
46931;SDS011;32670;51.464;11.964;2023-03-01T00:49:14;3.20;;;1.90;;
46931;SDS011;32670;51.464;11.964;2023-03-01T00:51:39;5.33;;;2.07;;
46931;SDS011;32670;51.464;11.964;2023-03-01T00:54:07;2.93;;;2.27;;
46931;SDS011;32670;51.464;11.964;2023-03-01T00:56:33;3.93;;;2.47;;
46931;SDS011;32670;51.464;11.964;2023-03-01T00:58:59;6.13;;;2.07;;
46931;SDS011;32670;51.464;11.964;2023-03-01T01:01:26;4.50;;;2.10;;
46931;SDS011;32670;51.464;11.964;2023-03-01T01:03:57;3.33;;;2.00;;
46931;SDS011;32670;51.464;11.964;2023-03-01T01:06:26;2.13;;;1.90;;
46931;SDS011;32670;51.464;11.964;2023-03-01T01:08:54;3.17;;;1.83;;
46931;SDS011;32670;51.464;11.964;2023-03-01T01:11:21;2.53;;;2.07;;
46931;SDS011;32670;51.464;11.964;2023-03-01T01:13:49;2.10;;;1.90;;
46931;SDS011;32670;51.464;11.964;2023-03-01T01:16:14;3.03;;;1.80;;
46931;SDS011;32670;51.464;11.964;2023-03-01T01:18:41;6.73;;;1.90;;
46931;SDS011;32670;51.464;11.964;2023-03-01T01:21:08;4.07;;;1.97;;
46931;SDS011;32670;51.464;11.964;2023-03-01T01:23:36;2.07;;;1.87;;
46931;SDS011;32670;51.464;11.964;2023-03-01T01:26:44;6.80;;;1.97;;
46931;SDS011;32670;51.464;11.964;2023-03-01T01:28:52;2.50;;;1.90;;
46931;SDS011;32670;51.464;11.964;2023-03-01T01:31:19;3.00;;;1.80;;
46931;SDS011;32670;51.464;11.964;2023-03-01T01:33:45;3.60;;;2.03;;
46931;SDS011;32670;51.464;11.964;2023-03-01T01:36:10;2.43;;;1.90;;
46931;SDS011;32670;51.464;11.964;2023-03-01T01:38:37;2.70;;;1.70;;
46931;SDS011;32670;51.464;11.964;2023-03-01T01:41:03;3.80;;;2.10;;
46931;SDS011;32670;51.464;11.964;2023-03-01T01:43:32;2.60;;;2.10;;
46931;SDS011;32670;51.464;11.964;2023-03-01T01:46:01;1.90;;;1.80;;
46931;SDS011;32670;51.464;11.964;2023-03-01T01:48:48;3.50;;;1.83;;
46931;SDS011;32670;51.464;11.964;2023-03-01T01:51:20;3.80;;;1.90;;
46931;SDS011;32670;51.464;11.964;2023-03-01T01:53:51;4.17;;;1.90;;
46931;SDS011;32670;51.464;11.964;2023-03-01T01:56:20;3.50;;;2.00;;
46931;SDS011;32670;51.464;11.964;2023-03-01T01:58:48;2.53;;;2.20;;
46931;SDS011;32670;51.464;11.964;2023-03-01T02:01:15;2.57;;;1.80;;
46931;SDS011;32670;51.464;11.964;2023-03-01T02:03:41;3.03;;;1.63;;
46931;SDS011;32670;51.464;11.964;2023-03-01T02:06:18;2.47;;;1.60;;
46931;SDS011;32670;51.464;11.964;2023-03-01T02:08:47;6.37;;;1.97;;
46931;SDS011;32670;51.464;11.964;2023-03-01T02:11:14;1.87;;;1.50;;
46931;SDS011;32670;51.464;11.964;2023-03-01T02:13:40;2.10;;;1.90;;
46931;SDS011;32670;51.464;11.964;2023-03-01T02:16:10;2.10;;;1.60;;
46931;SDS011;32670;51.464;11.964;2023-03-01T02:18:38;2.13;;;1.93;;
46931;SDS011;32670;51.464;11.964;2023-03-01T02:21:08;3.60;;;1.93;;
46931;SDS011;32670;51.464;11.964;2023-03-01T02:23:39;2.17;;;1.60;;
46931;SDS011;32670;51.464;11.964;2023-03-01T02:26:47;4.13;;;1.60;;
46931;SDS011;32670;51.464;11.964;2023-03-01T02:29:05;2.10;;;1.90;;
46931;SDS011;32670;51.464;11.964;2023-03-01T02:31:31;2.53;;;1.70;;
46931;SDS011;32670;51.464;11.964;2023-03-01T02:34:07;1.83;;;1.70;;
46931;SDS011;32670;51.464;11.964;2023-03-01T02:36:37;3.77;;;1.97;;
46931;SDS011;32670;51.464;11.964;2023-03-01T02:39:06;2.80;;;1.73;;
46931;SDS011;32670;51.464;11.964;2023-03-01T02:41:39;4.00;;;1.83;;
46931;SDS011;32670;51.464;11.964;2023-03-01T02:44:07;1.77;;;1.67;;
46931;SDS011;32670;51.464;11.964;2023-03-01T02:46:33;1.97;;;1.77;;
46931;SDS011;32670;51.464;11.964;2023-03-01T02:49:18;3.50;;;1.77;;
46931;SDS011;32670;51.464;11.964;2023-03-01T02:57:08;2.17;;;1.90;;
46931;SDS011;32670;51.464;11.964;2023-03-01T02:59:34;1.67;;;1.40;;
46931;SDS011;32670;51.464;11.964;2023-03-01T03:02:04;3.90;;;1.60;;
46931;SDS011;32670;51.464;11.964;2023-03-01T03:04:30;2.23;;;1.80;;
46931;SDS011;32670;51.464;11.964;2023-03-01T03:06:56;3.23;;;1.87;;
46931;SDS011;32670;51.464;11.964;2023-03-01T03:09:22;1.77;;;1.67;;
46931;SDS011;32670;51.464;11.964;2023-03-01T03:11:47;2.37;;;1.70;;
46931;SDS011;32670;51.464;11.964;2023-03-01T03:14:14;2.60;;;1.63;;
46931;SDS011;32670;51.464;11.964;2023-03-01T03:16:41;1.83;;;1.63;;
46931;SDS011;32670;51.464;11.964;2023-03-01T03:19:08;1.90;;;1.70;;
46931;SDS011;32670;51.464;11.964;2023-03-01T03:21:34;3.07;;;1.53;;
46931;SDS011;32670;51.464;11.964;2023-03-01T03:24:00;1.60;;;1.50;;
46931;SDS011;32670;51.464;11.964;2023-03-01T03:26:25;2.87;;;1.53;;
46931;SDS011;32670;51.464;11.964;2023-03-01T03:28:51;2.00;;;1.80;;
46931;SDS011;32670;51.464;11.964;2023-03-01T03:31:16;2.10;;;1.53;;
46931;SDS011;32670;51.464;11.964;2023-03-01T03:33:41;1.50;;;1.40;;
46931;SDS011;32670;51.464;11.964;2023-03-01T03:36:07;2.00;;;1.67;;
46931;SDS011;32670;51.464;11.964;2023-03-01T03:38:37;1.83;;;1.70;;
46931;SDS011;32670;51.464;11.964;2023-03-01T03:41:07;1.93;;;1.80;;
46931;SDS011;32670;51.464;11.964;2023-03-01T03:43:34;1.50;;;1.40;;
46931;SDS011;32670;51.464;11.964;2023-03-01T03:46:01;1.50;;;1.40;;
46931;SDS011;32670;51.464;11.964;2023-03-01T03:48:32;3.33;;;1.63;;
46931;SDS011;32670;51.464;11.964;2023-03-01T03:50:59;1.87;;;1.63;;
46931;SDS011;32670;51.464;11.964;2023-03-01T03:53:25;1.90;;;1.70;;
46931;SDS011;32670;51.464;11.964;2023-03-01T03:55:52;1.80;;;1.40;;
46931;SDS011;32670;51.464;11.964;2023-03-01T03:58:19;2.40;;;1.33;;
46931;SDS011;32670;51.464;11.964;2023-03-01T04:00:46;1.43;;;1.33;;
46931;SDS011;32670;51.464;11.964;2023-03-01T04:03:14;2.00;;;1.77;;
46931;SDS011;32670;51.464;11.964;2023-03-01T04:05:40;2.33;;;1.70;;
46931;SDS011;32670;51.464;11.964;2023-03-01T04:08:07;1.50;;;1.30;;
46931;SDS011;32670;51.464;11.964;2023-03-01T04:10:34;1.40;;;1.30;;
46931;SDS011;32670;51.464;11.964;2023-03-01T04:13:10;2.43;;;1.63;;
46931;SDS011;32670;51.464;11.964;2023-03-01T04:15:37;1.50;;;1.40;;
46931;SDS011;32670;51.464;11.964;2023-03-01T04:18:03;1.93;;;1.40;;
46931;SDS011;32670;51.464;11.964;2023-03-01T04:20:31;2.40;;;1.40;;
46931;SDS011;32670;51.464;11.964;2023-03-01T04:25:48;1.53;;;1.43;;
46931;SDS011;32670;51.464;11.964;2023-03-01T04:28:20;1.63;;;1.40;;
46931;SDS011;32670;51.464;11.964;2023-03-01T04:30:46;1.40;;;1.30;;
46931;SDS011;32670;51.464;11.964;2023-03-01T04:33:12;1.60;;;1.50;;
46931;SDS011;32670;51.464;11.964;2023-03-01T04:35:37;1.60;;;1.47;;
46931;SDS011;32670;51.464;11.964;2023-03-01T04:38:04;3.73;;;1.57;;
46931;SDS011;32670;51.464;11.964;2023-03-01T04:40:30;1.60;;;1.50;;
46931;SDS011;32670;51.464;11.964;2023-03-01T04:42:56;1.70;;;1.60;;
46931;SDS011;32670;51.464;11.964;2023-03-01T04:45:22;1.67;;;1.50;;
46931;SDS011;32670;51.464;11.964;2023-03-01T04:47:47;1.90;;;1.70;;
46931;SDS011;32670;51.464;11.964;2023-03-01T04:50:15;1.70;;;1.33;;
46931;SDS011;32670;51.464;11.964;2023-03-01T04:52:41;1.40;;;1.30;;
46931;SDS011;32670;51.464;11.964;2023-03-01T04:55:08;6.93;;;1.67;;
46931;SDS011;32670;51.464;11.964;2023-03-01T04:57:34;2.23;;;1.57;;
46931;SDS011;32670;51.464;11.964;2023-03-01T05:00:00;3.67;;;1.53;;
46931;SDS011;32670;51.464;11.964;2023-03-01T05:02:25;5.03;;;1.70;;
46931;SDS011;32670;51.464;11.964;2023-03-01T05:04:51;2.20;;;1.30;;
46931;SDS011;32670;51.464;11.964;2023-03-01T05:07:16;1.60;;;1.50;;
46931;SDS011;32670;51.464;11.964;2023-03-01T05:09:47;1.70;;;1.60;;
46931;SDS011;32670;51.464;11.964;2023-03-01T05:12:12;1.53;;;1.40;;
46931;SDS011;32670;51.464;11.964;2023-03-01T05:14:39;2.53;;;1.70;;
46931;SDS011;32670;51.464;11.964;2023-03-01T05:17:05;2.03;;;1.57;;
46931;SDS011;32670;51.464;11.964;2023-03-01T05:19:31;2.90;;;1.40;;
46931;SDS011;32670;51.464;11.964;2023-03-01T05:21:57;1.63;;;1.50;;
46931;SDS011;32670;51.464;11.964;2023-03-01T05:24:29;1.53;;;1.27;;
46931;SDS011;32670;51.464;11.964;2023-03-01T05:26:56;1.60;;;1.50;;
46931;SDS011;32670;51.464;11.964;2023-03-01T05:29:22;4.53;;;1.57;;
46931;SDS011;32670;51.464;11.964;2023-03-01T05:31:53;1.50;;;1.40;;
46931;SDS011;32670;51.464;11.964;2023-03-01T05:34:22;1.33;;;1.23;;
46931;SDS011;32670;51.464;11.964;2023-03-01T05:36:50;1.37;;;1.27;;
46931;SDS011;32670;51.464;11.964;2023-03-01T05:39:17;1.70;;;1.60;;
46931;SDS011;32670;51.464;11.964;2023-03-01T05:41:48;2.60;;;1.43;;
46931;SDS011;32670;51.464;11.964;2023-03-01T05:44:17;5.10;;;1.40;;
46931;SDS011;32670;51.464;11.964;2023-03-01T05:46:42;2.57;;;1.50;;
46931;SDS011;32670;51.464;11.964;2023-03-01T05:49:07;4.93;;;1.47;;
46931;SDS011;32670;51.464;11.964;2023-03-01T05:51:33;1.50;;;1.40;;
46931;SDS011;32670;51.464;11.964;2023-03-01T05:53:58;2.80;;;1.47;;
46931;SDS011;32670;51.464;11.964;2023-03-01T05:56:24;3.77;;;1.60;;
46931;SDS011;32670;51.464;11.964;2023-03-01T05:58:50;6.80;;;1.50;;
46931;SDS011;32670;51.464;11.964;2023-03-01T06:01:15;2.53;;;1.47;;
46931;SDS011;32670;51.464;11.964;2023-03-01T06:03:41;3.20;;;1.43;;
46931;SDS011;32670;51.464;11.964;2023-03-01T06:06:07;1.57;;;1.33;;
46931;SDS011;32670;51.464;11.964;2023-03-01T06:08:32;1.50;;;1.40;;
46931;SDS011;32670;51.464;11.964;2023-03-01T06:10:58;4.23;;;1.50;;
46931;SDS011;32670;51.464;11.964;2023-03-01T06:13:23;2.10;;;1.40;;
46931;SDS011;32670;51.464;11.964;2023-03-01T06:15:49;2.50;;;1.20;;
46931;SDS011;32670;51.464;11.964;2023-03-01T06:18:14;2.63;;;1.60;;
46931;SDS011;32670;51.464;11.964;2023-03-01T06:20:40;1.40;;;1.30;;
46931;SDS011;32670;51.464;11.964;2023-03-01T06:23:05;3.30;;;1.40;;
46931;SDS011;32670;51.464;11.964;2023-03-01T06:25:31;1.63;;;1.40;;
46931;SDS011;32670;51.464;11.964;2023-03-01T06:27:56;1.33;;;1.20;;
46931;SDS011;32670;51.464;11.964;2023-03-01T06:30:23;3.63;;;1.40;;
46931;SDS011;32670;51.464;11.964;2023-03-01T06:32:49;2.83;;;1.63;;
46931;SDS011;32670;51.464;11.964;2023-03-01T06:35:16;8.97;;;1.93;;
46931;SDS011;32670;51.464;11.964;2023-03-01T06:37:42;4.67;;;2.30;;
46931;SDS011;32670;51.464;11.964;2023-03-01T06:40:09;5.70;;;5.20;;
46931;SDS011;32670;51.464;11.964;2023-03-01T06:42:36;7.33;;;6.00;;
46931;SDS011;32670;51.464;11.964;2023-03-01T06:45:06;8.40;;;6.10;;
46931;SDS011;32670;51.464;11.964;2023-03-01T06:47:33;7.37;;;6.67;;
46931;SDS011;32670;51.464;11.964;2023-03-01T06:49:59;6.40;;;5.80;;
46931;SDS011;32670;51.464;11.964;2023-03-01T06:52:25;7.63;;;6.90;;
46931;SDS011;32670;51.464;11.964;2023-03-01T06:54:50;7.10;;;6.40;;
46931;SDS011;32670;51.464;11.964;2023-03-01T06:57:16;7.97;;;6.53;;
46931;SDS011;32670;51.464;11.964;2023-03-01T06:59:42;7.07;;;6.37;;
46931;SDS011;32670;51.464;11.964;2023-03-01T07:02:09;7.43;;;6.63;;
46931;SDS011;32670;51.464;11.964;2023-03-01T07:04:38;7.27;;;6.40;;
46931;SDS011;32670;51.464;11.964;2023-03-01T07:07:04;6.90;;;6.23;;
46931;SDS011;32670;51.464;11.964;2023-03-01T07:09:30;7.80;;;6.70;;
46931;SDS011;32670;51.464;11.964;2023-03-01T07:11:56;8.00;;;6.57;;
46931;SDS011;32670;51.464;11.964;2023-03-01T07:14:21;9.10;;;6.70;;
46931;SDS011;32670;51.464;11.964;2023-03-01T07:16:49;7.63;;;6.87;;
46931;SDS011;32670;51.464;11.964;2023-03-01T07:19:15;7.40;;;6.63;;
46931;SDS011;32670;51.464;11.964;2023-03-01T07:21:40;7.70;;;6.73;;
46931;SDS011;32670;51.464;11.964;2023-03-01T07:24:06;9.27;;;6.80;;
46931;SDS011;32670;51.464;11.964;2023-03-01T07:26:32;7.50;;;6.80;;
46931;SDS011;32670;51.464;11.964;2023-03-01T07:28:58;9.43;;;7.50;;
46931;SDS011;32670;51.464;11.964;2023-03-01T07:31:25;7.87;;;7.10;;
46931;SDS011;32670;51.464;11.964;2023-03-01T07:33:52;8.13;;;6.87;;
46931;SDS011;32670;51.464;11.964;2023-03-01T07:36:19;8.13;;;7.33;;
46931;SDS011;32670;51.464;11.964;2023-03-01T07:38:44;8.07;;;7.27;;
46931;SDS011;32670;51.464;11.964;2023-03-01T07:41:10;16.87;;;7.90;;
46931;SDS011;32670;51.464;11.964;2023-03-01T07:43:35;9.20;;;6.27;;
46931;SDS011;32670;51.464;11.964;2023-03-01T07:46:01;12.50;;;6.40;;
46931;SDS011;32670;51.464;11.964;2023-03-01T07:48:27;12.93;;;6.47;;
46931;SDS011;32670;51.464;11.964;2023-03-01T07:50:53;14.63;;;6.37;;
46931;SDS011;32670;51.464;11.964;2023-03-01T07:53:18;10.80;;;6.10;;
46931;SDS011;32670;51.464;11.964;2023-03-01T07:55:44;11.43;;;5.80;;
46931;SDS011;32670;51.464;11.964;2023-03-01T07:58:09;7.73;;;5.33;;
46931;SDS011;32670;51.464;11.964;2023-03-01T08:00:37;11.33;;;5.50;;
46931;SDS011;32670;51.464;11.964;2023-03-01T08:03:03;8.33;;;5.50;;
46931;SDS011;32670;51.464;11.964;2023-03-01T08:05:28;8.80;;;5.10;;
46931;SDS011;32670;51.464;11.964;2023-03-01T08:07:54;6.10;;;5.20;;
46931;SDS011;32670;51.464;11.964;2023-03-01T08:10:20;6.00;;;4.63;;
46931;SDS011;32670;51.464;11.964;2023-03-01T08:12:45;5.70;;;4.70;;
46931;SDS011;32670;51.464;11.964;2023-03-01T08:15:11;6.80;;;4.67;;
46931;SDS011;32670;51.464;11.964;2023-03-01T08:17:36;6.70;;;4.70;;
46931;SDS011;32670;51.464;11.964;2023-03-01T08:20:02;6.43;;;4.43;;
46931;SDS011;32670;51.464;11.964;2023-03-01T08:22:31;4.93;;;4.47;;
46931;SDS011;32670;51.464;11.964;2023-03-01T08:24:56;5.27;;;4.50;;
46931;SDS011;32670;51.464;11.964;2023-03-01T08:27:21;5.80;;;4.53;;
46931;SDS011;32670;51.464;11.964;2023-03-01T08:29:47;5.27;;;4.70;;
46931;SDS011;32670;51.464;11.964;2023-03-01T08:32:12;6.33;;;4.10;;
46931;SDS011;32670;51.464;11.964;2023-03-01T08:34:38;5.97;;;4.70;;
46931;SDS011;32670;51.464;11.964;2023-03-01T08:37:04;6.00;;;4.40;;
46931;SDS011;32670;51.464;11.964;2023-03-01T08:39:29;5.70;;;4.50;;
46931;SDS011;32670;51.464;11.964;2023-03-01T08:41:54;6.03;;;4.30;;
46931;SDS011;32670;51.464;11.964;2023-03-01T08:44:20;5.33;;;4.27;;
46931;SDS011;32670;51.464;11.964;2023-03-01T08:46:46;6.13;;;4.40;;
46931;SDS011;32670;51.464;11.964;2023-03-01T08:49:13;4.30;;;3.90;;
46931;SDS011;32670;51.464;11.964;2023-03-01T08:51:41;5.17;;;3.90;;
46931;SDS011;32670;51.464;11.964;2023-03-01T08:54:09;5.47;;;4.47;;
46931;SDS011;32670;51.464;11.964;2023-03-01T08:56:36;6.67;;;4.33;;
46931;SDS011;32670;51.464;11.964;2023-03-01T08:59:02;4.73;;;4.30;;
46931;SDS011;32670;51.464;11.964;2023-03-01T09:01:28;6.17;;;4.13;;
46931;SDS011;32670;51.464;11.964;2023-03-01T09:03:53;5.53;;;4.07;;
46931;SDS011;32670;51.464;11.964;2023-03-01T09:06:19;5.13;;;4.23;;
46931;SDS011;32670;51.464;11.964;2023-03-01T09:08:45;4.20;;;3.80;;
46931;SDS011;32670;51.464;11.964;2023-03-01T09:11:13;7.77;;;4.17;;
46931;SDS011;32670;51.464;11.964;2023-03-01T09:13:45;4.33;;;3.80;;
46931;SDS011;32670;51.464;11.964;2023-03-01T09:16:13;4.47;;;4.07;;
46931;SDS011;32670;51.464;11.964;2023-03-01T09:18:40;4.70;;;3.90;;
46931;SDS011;32670;51.464;11.964;2023-03-01T09:23:36;4.60;;;4.20;;
46931;SDS011;32670;51.464;11.964;2023-03-01T09:26:04;4.33;;;3.80;;
46931;SDS011;32670;51.464;11.964;2023-03-01T09:28:30;3.90;;;3.50;;
46931;SDS011;32670;51.464;11.964;2023-03-01T09:30:59;4.60;;;3.63;;
46931;SDS011;32670;51.464;11.964;2023-03-01T09:33:25;4.20;;;3.80;;
46931;SDS011;32670;51.464;11.964;2023-03-01T09:35:56;4.00;;;3.60;;
46931;SDS011;32670;51.464;11.964;2023-03-01T09:38:22;4.80;;;3.57;;
46931;SDS011;32670;51.464;11.964;2023-03-01T09:40:48;4.13;;;3.40;;
46931;SDS011;32670;51.464;11.964;2023-03-01T09:43:23;4.17;;;3.60;;
46931;SDS011;32670;51.464;11.964;2023-03-01T09:46:09;4.83;;;3.57;;
46931;SDS011;32670;51.464;11.964;2023-03-01T09:48:41;4.83;;;4.33;;
46931;SDS011;32670;51.464;11.964;2023-03-01T09:51:12;5.77;;;4.50;;
46931;SDS011;32670;51.464;11.964;2023-03-01T09:53:58;7.27;;;5.00;;
46931;SDS011;32670;51.464;11.964;2023-03-01T09:56:42;5.10;;;4.17;;
46931;SDS011;32670;51.464;11.964;2023-03-01T09:59:19;4.87;;;4.13;;
46931;SDS011;32670;51.464;11.964;2023-03-01T10:01:59;5.40;;;4.57;;
46931;SDS011;32670;51.464;11.964;2023-03-01T10:04:49;5.10;;;4.20;;
46931;SDS011;32670;51.464;11.964;2023-03-01T10:07:33;4.77;;;4.27;;
46931;SDS011;32670;51.464;11.964;2023-03-01T10:10:14;6.13;;;4.20;;
46931;SDS011;32670;51.464;11.964;2023-03-01T10:12:49;4.77;;;4.07;;
46931;SDS011;32670;51.464;11.964;2023-03-01T10:15:22;4.47;;;4.07;;
46931;SDS011;32670;51.464;11.964;2023-03-01T10:18:04;4.50;;;4.10;;
46931;SDS011;32670;51.464;11.964;2023-03-01T10:20:57;5.50;;;4.57;;
46931;SDS011;32670;51.464;11.964;2023-03-01T10:23:42;4.60;;;4.20;;
46931;SDS011;32670;51.464;11.964;2023-03-01T10:29:10;4.27;;;3.70;;
46931;SDS011;32670;51.464;11.964;2023-03-01T10:31:47;4.60;;;4.10;;
46931;SDS011;32670;51.464;11.964;2023-03-01T10:34:16;5.27;;;4.20;;
46931;SDS011;32670;51.464;11.964;2023-03-01T10:36:42;7.10;;;4.30;;
46931;SDS011;32670;51.464;11.964;2023-03-01T10:39:20;5.17;;;4.00;;
46931;SDS011;32670;51.464;11.964;2023-03-01T10:41:58;5.17;;;3.67;;
46931;SDS011;32670;51.464;11.964;2023-03-01T10:47:12;5.00;;;4.43;;
46931;SDS011;32670;51.464;11.964;2023-03-01T10:49:43;4.57;;;3.90;;
46931;SDS011;32670;51.464;11.964;2023-03-01T10:52:18;4.57;;;3.73;;
46931;SDS011;32670;51.464;11.964;2023-03-01T10:54:52;4.20;;;3.80;;
46931;SDS011;32670;51.464;11.964;2023-03-01T10:57:31;5.07;;;3.50;;
46931;SDS011;32670;51.464;11.964;2023-03-01T11:00:10;4.07;;;3.60;;
46931;SDS011;32670;51.464;11.964;2023-03-01T11:02:42;4.20;;;3.80;;
46931;SDS011;32670;51.464;11.964;2023-03-01T11:07:47;5.03;;;3.80;;
46931;SDS011;32670;51.464;11.964;2023-03-01T11:10:30;3.80;;;3.40;;
46931;SDS011;32670;51.464;11.964;2023-03-01T11:15:43;3.60;;;3.30;;
46931;SDS011;32670;51.464;11.964;2023-03-01T11:18:23;3.53;;;3.23;;
46931;SDS011;32670;51.464;11.964;2023-03-01T11:20:49;4.17;;;3.77;;
46931;SDS011;32670;51.464;11.964;2023-03-01T11:23:18;4.90;;;3.90;;
46931;SDS011;32670;51.464;11.964;2023-03-01T11:25:49;4.30;;;3.60;;
46931;SDS011;32670;51.464;11.964;2023-03-01T11:28:21;3.97;;;3.37;;
46931;SDS011;32670;51.464;11.964;2023-03-01T11:30:58;3.90;;;3.50;;
46931;SDS011;32670;51.464;11.964;2023-03-01T11:33:44;4.00;;;3.60;;
46931;SDS011;32670;51.464;11.964;2023-03-01T11:36:28;3.80;;;3.40;;
46931;SDS011;32670;51.464;11.964;2023-03-01T11:39:22;6.00;;;4.83;;
46931;SDS011;32670;51.464;11.964;2023-03-01T11:41:52;5.37;;;4.13;;
46931;SDS011;32670;51.464;11.964;2023-03-01T11:44:29;4.50;;;4.10;;
46931;SDS011;32670;51.464;11.964;2023-03-01T11:49:40;4.57;;;4.10;;
46931;SDS011;32670;51.464;11.964;2023-03-01T11:52:26;5.90;;;4.47;;
46931;SDS011;32670;51.464;11.964;2023-03-01T12:03:54;5.10;;;4.30;;
46931;SDS011;32670;51.464;11.964;2023-03-01T12:06:50;5.40;;;3.80;;
46931;SDS011;32670;51.464;11.964;2023-03-01T12:09:32;4.90;;;3.90;;
46931;SDS011;32670;51.464;11.964;2023-03-01T12:15:46;4.57;;;4.07;;
46931;SDS011;32670;51.464;11.964;2023-03-01T12:21:03;4.77;;;3.80;;
46931;SDS011;32670;51.464;11.964;2023-03-01T12:24:05;4.10;;;3.70;;
46931;SDS011;32670;51.464;11.964;2023-03-01T12:26:52;4.20;;;3.80;;
46931;SDS011;32670;51.464;11.964;2023-03-01T12:29:47;5.03;;;3.63;;
46931;SDS011;32670;51.464;11.964;2023-03-01T12:32:33;3.80;;;3.27;;
46931;SDS011;32670;51.464;11.964;2023-03-01T12:40:33;4.23;;;3.83;;
46931;SDS011;32670;51.464;11.964;2023-03-01T12:46:46;4.07;;;3.67;;
46931;SDS011;32670;51.464;11.964;2023-03-01T12:49:33;3.70;;;3.40;;
46931;SDS011;32670;51.464;11.964;2023-03-01T12:52:07;4.47;;;3.70;;
46931;SDS011;32670;51.464;11.964;2023-03-01T12:54:41;4.37;;;3.90;;
46931;SDS011;32670;51.464;11.964;2023-03-01T12:57:27;4.27;;;3.80;;
46931;SDS011;32670;51.464;11.964;2023-03-01T13:00:09;3.77;;;3.47;;
46931;SDS011;32670;51.464;11.964;2023-03-01T13:02:48;3.50;;;3.20;;
46931;SDS011;32670;51.464;11.964;2023-03-01T13:05:34;3.80;;;3.40;;
46931;SDS011;32670;51.464;11.964;2023-03-01T13:08:07;3.80;;;3.50;;
46931;SDS011;32670;51.464;11.964;2023-03-01T13:10:51;4.23;;;3.70;;
46931;SDS011;32670;51.464;11.964;2023-03-01T13:13:26;4.70;;;3.60;;
46931;SDS011;32670;51.464;11.964;2023-03-01T13:15:52;3.47;;;3.17;;
46931;SDS011;32670;51.464;11.964;2023-03-01T13:25:59;3.63;;;3.33;;
46931;SDS011;32670;51.464;11.964;2023-03-01T13:28:40;4.10;;;3.70;;
46931;SDS011;32670;51.464;11.964;2023-03-01T13:31:10;3.73;;;3.43;;
46931;SDS011;32670;51.464;11.964;2023-03-01T13:33:54;3.80;;;3.40;;
46931;SDS011;32670;51.464;11.964;2023-03-01T13:44:20;3.43;;;3.03;;
46931;SDS011;32670;51.464;11.964;2023-03-01T13:46:50;3.50;;;3.20;;
46931;SDS011;32670;51.464;11.964;2023-03-01T13:49:28;3.40;;;3.10;;
46931;SDS011;32670;51.464;11.964;2023-03-01T13:52:00;3.53;;;3.23;;
46931;SDS011;32670;51.464;11.964;2023-03-01T13:54:30;3.70;;;3.30;;
46931;SDS011;32670;51.464;11.964;2023-03-01T13:56:59;3.60;;;3.30;;
46931;SDS011;32670;51.464;11.964;2023-03-01T13:59:26;3.40;;;3.10;;
46931;SDS011;32670;51.464;11.964;2023-03-01T14:01:53;3.37;;;3.07;;
46931;SDS011;32670;51.464;11.964;2023-03-01T14:04:21;3.87;;;3.10;;
46931;SDS011;32670;51.464;11.964;2023-03-01T14:06:49;3.50;;;3.10;;
46931;SDS011;32670;51.464;11.964;2023-03-01T14:09:16;3.53;;;3.20;;
46931;SDS011;32670;51.464;11.964;2023-03-01T14:15:10;3.17;;;2.87;;
46931;SDS011;32670;51.464;11.964;2023-03-01T14:17:52;3.30;;;3.00;;
46931;SDS011;32670;51.464;11.964;2023-03-01T14:20:38;3.30;;;3.00;;
46931;SDS011;32670;51.464;11.964;2023-03-01T14:23:13;3.30;;;3.00;;
46931;SDS011;32670;51.464;11.964;2023-03-01T14:25:49;3.47;;;3.17;;
46931;SDS011;32670;51.464;11.964;2023-03-01T14:28:17;3.20;;;2.90;;
46931;SDS011;32670;51.464;11.964;2023-03-01T14:30:50;3.00;;;2.80;;
46931;SDS011;32670;51.464;11.964;2023-03-01T14:33:21;2.77;;;2.57;;
46931;SDS011;32670;51.464;11.964;2023-03-01T14:36:00;2.97;;;2.77;;
46931;SDS011;32670;51.464;11.964;2023-03-01T14:38:33;3.10;;;2.80;;
46931;SDS011;32670;51.464;11.964;2023-03-01T14:41:22;3.20;;;2.90;;
46931;SDS011;32670;51.464;11.964;2023-03-01T14:43:51;3.47;;;3.17;;
46931;SDS011;32670;51.464;11.964;2023-03-01T14:46:22;3.67;;;2.73;;
46931;SDS011;32670;51.464;11.964;2023-03-01T14:48:51;3.60;;;2.90;;
46931;SDS011;32670;51.464;11.964;2023-03-01T14:51:20;2.80;;;2.60;;
46931;SDS011;32670;51.464;11.964;2023-03-01T14:53:45;3.13;;;2.90;;
46931;SDS011;32670;51.464;11.964;2023-03-01T14:56:12;3.23;;;2.97;;
46931;SDS011;32670;51.464;11.964;2023-03-01T14:58:40;3.33;;;3.03;;
46931;SDS011;32670;51.464;11.964;2023-03-01T15:01:06;3.17;;;2.97;;
46931;SDS011;32670;51.464;11.964;2023-03-01T15:03:34;2.70;;;2.50;;
46931;SDS011;32670;51.464;11.964;2023-03-01T15:06:10;3.53;;;3.23;;
46931;SDS011;32670;51.464;11.964;2023-03-01T15:08:41;3.07;;;2.63;;
46931;SDS011;32670;51.464;11.964;2023-03-01T15:11:27;2.87;;;2.67;;
46931;SDS011;32670;51.464;11.964;2023-03-01T15:13:54;3.47;;;2.90;;
46931;SDS011;32670;51.464;11.964;2023-03-01T15:16:24;2.97;;;2.70;;
46931;SDS011;32670;51.464;11.964;2023-03-01T15:18:57;3.07;;;2.70;;
46931;SDS011;32670;51.464;11.964;2023-03-01T15:21:32;2.70;;;2.50;;
46931;SDS011;32670;51.464;11.964;2023-03-01T15:26:37;3.10;;;2.30;;
46931;SDS011;32670;51.464;11.964;2023-03-01T15:29:10;3.70;;;2.40;;
46931;SDS011;32670;51.464;11.964;2023-03-01T15:31:42;3.20;;;2.57;;
46931;SDS011;32670;51.464;11.964;2023-03-01T15:34:09;3.03;;;2.73;;
46931;SDS011;32670;51.464;11.964;2023-03-01T15:36:46;2.60;;;2.40;;
46931;SDS011;32670;51.464;11.964;2023-03-01T15:42:05;2.77;;;2.57;;
46931;SDS011;32670;51.464;11.964;2023-03-01T15:44:33;2.50;;;2.30;;
46931;SDS011;32670;51.464;11.964;2023-03-01T15:47:00;2.60;;;2.40;;
46931;SDS011;32670;51.464;11.964;2023-03-01T15:49:33;2.80;;;2.60;;
46931;SDS011;32670;51.464;11.964;2023-03-01T15:52:10;3.13;;;2.80;;
46931;SDS011;32670;51.464;11.964;2023-03-01T15:54:44;2.60;;;2.40;;
46931;SDS011;32670;51.464;11.964;2023-03-01T15:57:13;2.87;;;2.67;;
46931;SDS011;32670;51.464;11.964;2023-03-01T15:59:39;3.03;;;2.80;;
46931;SDS011;32670;51.464;11.964;2023-03-01T16:02:09;2.70;;;2.50;;